Hovedside
METAR-TAF:

METAR-TAF

Lufthavner :

Oljeplattform

Ula, Norge

breddegrad: 59-06-39N, lengdegrad: 2-50-45E, høyde over havet: 0 m

Gjeldene værobservasjon

Denne rapporten ble laget for 11 minutter siden, klokken 11:20 UTC
Vind 20 kt fra Vest
Temperatur 8°C
Luftfuktighet 66%
Trykk 1001 hPa
Sikt 10 km eller mer

METAR: ENLA 071120Z AUTO 26020KT 9999NDV BKN054/// 08/02 Q1001 W///S5

Tid: 12:31 (11:31 UTC)


TAF: fraværende

Værobservasjoner og værvarsel for over 4000 flyplasser (METAR- og TAF-rapporter).

Tilgjengelige stasjoner er representert av de røde og gule prikkene på kartet.

Hold musepekeren over prikken for å se navnet på stasjonen.

Klikk så for å se værobservasjoner og -varsler.

For å forandre kartet kan du klikke på den grønne knappen med svart kryss for å zoome inn, på den grønne knappen med strek for å zoome ut, eller på de grønne pilene for å se tilstøtende kart.


METAR-TAF: